Time;durP1;ratioP1;P1;durP2;ratioP2;P2;SDS_P1;SDS_P2;PMS_P1;PMS_P2;Temp;Humidity;BMP_temperature;BMP_pressure;BME280_temperature;BME280_humidity;BME280_pressure;Samples;Min_cycle;Max_cycle;Signal;HPM_P1;HPM_P2
2023/01/18 00:01:09;;;;;;;42.90;21.30;;;;;;;1.57;83.88;95888.44;105042;1259;97962;-77
2023/01/18 00:03:37;;;;;;;44.90;22.90;;;;;;;1.51;84.58;95886.89;105409;1257;97882;-73
2023/01/18 00:06:08;;;;;;;37.90;19.30;;;;;;;1.46;84.44;95888.14;105427;1256;111296;-73
2023/01/18 00:08:38;;;;;;;47.90;23.90;;;;;;;1.42;84.81;95889.77;105431;1256;97921;-73
2023/01/18 00:11:07;;;;;;;57.40;28.40;;;;;;;1.37;84.72;95889.34;105425;1264;108524;-73
2023/01/18 00:13:35;;;;;;;63.80;24.90;;;;;;;1.34;85.23;95880.78;105416;1258;97886;-73
2023/01/18 00:16:09;;;;;;;83.10;31.30;;;;;;;1.31;85.18;95881.78;105386;1256;99562;-73
2023/01/18 00:18:36;;;;;;;65.60;28.60;;;;;;;1.32;85.42;95879.94;105372;1256;112239;-73
2023/01/18 00:21:07;;;;;;;37.50;17.50;;;;;;;1.32;85.18;95877.66;105361;1254;99161;-73
2023/01/18 00:23:34;;;;;;;52.20;24.50;;;;;;;1.32;85.69;95875.73;105371;1257;108104;-73
2023/01/18 00:26:07;;;;;;;50.90;22.40;;;;;;;1.32;85.69;95875.85;105374;1257;98553;-73
2023/01/18 00:28:35;;;;;;;56.60;24.80;;;;;;;1.32;85.87;95875.48;105345;1257;97899;-73
2023/01/18 00:31:19;;;;;;;53.80;24.10;;;;;;;1.34;86.01;95870.31;105360;1256;112294;-73
2023/01/18 00:33:48;;;;;;;48.90;23.10;;;;;;;1.33;86.31;95864.03;105350;1256;98711;-73
2023/01/18 00:36:16;;;;;;;48.10;24.70;;;;;;;1.30;86.57;95858.60;105430;1255;108699;-72
2023/01/18 00:38:50;;;;;;;37.40;19.90;;;;;;;1.27;86.78;95855.32;105395;1254;97953;-73
2023/01/18 00:41:18;;;;;;;41.50;21.60;;;;;;;1.23;86.97;95844.51;105403;1257;98709;-72
2023/01/18 00:43:45;;;;;;;36.60;18.80;;;;;;;1.19;87.22;95841.05;105299;1257;111764;-72
2023/01/18 00:46:15;;;;;;;42.60;22.80;;;;;;;1.15;87.80;95840.10;105374;1258;99090;-72
2023/01/18 00:48:42;;;;;;;53.00;26.00;;;;;;;1.10;87.74;95830.34;105398;1254;108509;-72
2023/01/18 00:51:15;;;;;;;54.60;25.00;;;;;;;1.07;88.07;95825.67;105328;1256;97898;-72
2023/01/18 00:53:44;;;;;;;53.60;26.70;;;;;;;1.06;88.12;95825.55;105441;1263;98428;-73
2023/01/18 00:56:15;;;;;;;53.10;25.40;;;;;;;1.06;88.11;95827.64;105355;1256;112086;-73
2023/01/18 00:58:42;;;;;;;45.70;21.20;;;;;;;1.08;88.03;95824.93;105455;1257;99252;-73
2023/01/18 01:01:09;;;;;;;56.20;25.80;;;;;;;1.06;88.64;95819.30;105250;1257;97984;-73
2023/01/18 01:06:45;;;;;;;60.50;27.90;;;;;;;1.07;88.64;95815.42;105389;1257;98212;-72
2023/01/18 01:09:20;;;;;;;62.80;29.10;;;;;;;1.13;88.23;95820.54;105363;1256;112358;-72
2023/01/18 01:28:27;;;;;;;40.00;20.30;;;;;;;1.14;89.34;95819.08;105354;1256;108966;-70
2023/01/18 01:31:01;;;;;;;37.10;19.90;;;;;;;1.13;89.42;95819.05;105327;1254;99159;-70
2023/01/18 01:33:30;;;;;;;33.60;18.00;;;;;;;1.11;89.77;95810.58;105363;1256;97997;-70
2023/01/18 01:36:00;;;;;;;37.50;19.00;;;;;;;1.10;90.05;95815.05;105400;1254;111751;-71
2023/01/18 01:38:28;;;;;;;42.40;20.00;;;;;;;1.07;90.56;95806.69;105364;1256;98817;-71
2023/01/18 01:41:16;;;;;;;47.00;23.30;;;;;;;1.07;90.53;95805.08;105324;1265;107555;-71
2023/01/18 01:43:48;;;;;;;41.30;19.00;;;;;;;1.08;90.82;95801.13;105294;1254;98797;-71
2023/01/18 01:46:45;;;;;;;22.40;13.20;;;;;;;1.09;90.73;95804.84;105319;1256;99109;-71
2023/01/18 01:49:20;;;;;;;31.60;16.80;;;;;;;1.10;90.84;95802.80;105405;1256;111175;-71
2023/01/18 01:51:53;;;;;;;35.70;17.30;;;;;;;1.13;90.93;95807.73;105396;1256;98418;-71
2023/01/18 01:54:27;;;;;;;24.30;12.60;;;;;;;1.15;91.15;95807.94;105293;1267;105858;-71
2023/01/18 01:57:06;;;;;;;28.20;12.80;;;;;;;1.16;91.72;95813.54;105304;1264;97992;-71
2023/01/18 01:59:36;;;;;;;29.20;16.00;;;;;;;1.15;91.60;95815.30;105271;1254;98336;-71
2023/01/18 02:02:04;;;;;;;30.70;13.50;;;;;;;1.14;91.52;95823.01;105375;1256;111451;-71
2023/01/18 02:04:32;;;;;;;26.30;14.30;;;;;;;1.14;91.81;95828.40;105387;1254;100111;-71
2023/01/18 02:06:59;;;;;;;29.80;13.80;;;;;;;1.18;91.59;95829.95;105221;1255;108714;-70
2023/01/18 02:09:26;;;;;;;26.80;13.30;;;;;;;1.18;91.44;95831.34;105321;1254;97981;-70
2023/01/18 02:11:54;;;;;;;27.70;13.60;;;;;;;1.18;91.90;95830.36;105353;1270;99197;-70
2023/01/18 02:14:26;;;;;;;22.10;12.40;;;;;;;1.19;92.27;95822.84;105344;1256;97899;-69
2023/01/18 02:17:18;;;;;;;25.50;11.40;;;;;;;1.19;92.16;95815.60;105307;1256;99507;-69
2023/01/18 02:20:23;;;;;;;28.60;14.10;;;;;;;1.19;92.07;95811.99;105303;1257;108588;-69
2023/01/18 02:23:08;;;;;;;16.40;8.30;;;;;;;1.21;92.35;95813.44;105317;1257;98817;-69
2023/01/18 02:25:35;;;;;;;33.00;16.10;;;;;;;1.17;91.89;95813.05;105334;1267;98382;-69
2023/01/18 02:28:18;;;;;;;22.00;10.90;;;;;;;1.19;91.94;95804.71;105262;1256;99227;-68
2023/01/18 02:31:09;;;;;;;21.50;11.30;;;;;;;1.16;91.94;95797.20;105142;1256;99196;-68
2023/01/18 02:33:36;;;;;;;;;;;;;;;1.16;92.02;95791.80;105292;1256;108364;-68
2023/01/18 02:36:05;;;;;;;22.50;12.00;;;;;;;1.16;92.31;95790.41;105215;1257;97977;-67
2023/01/18 02:38:43;;;;;;;21.10;11.00;;;;;;;1.13;92.14;95790.84;105235;1256;98328;-67
2023/01/18 02:41:18;;;;;;;24.50;13.30;;;;;;;1.12;92.34;95790.48;105141;1264;110744;-70
2023/01/18 02:46:37;;;;;;;26.70;14.30;;;;;;;1.13;92.19;95810.12;105311;1261;107896;-68
2023/01/18 02:49:07;;;;;;;23.60;13.50;;;;;;;1.17;91.88;95824.31;105294;1270;98513;-69
2023/01/18 02:51:35;;;;;;;24.00;12.40;;;;;;;1.17;92.07;95829.38;105301;1256;97931;-68
2023/01/18 02:54:07;;;;;;;24.30;12.20;;;;;;;1.18;91.91;95826.81;105314;1257;112189;-68
2023/01/18 02:56:40;;;;;;;26.60;13.20;;;;;;;1.21;92.10;95830.16;105291;1268;99078;-68
2023/01/18 02:59:12;;;;;;;21.80;12.70;;;;;;;1.24;92.01;95825.96;105262;1263;108788;-69
2023/01/18 03:01:48;;;;;;;21.20;13.00;;;;;;;1.28;91.93;95821.41;105239;1273;98849;-68
2023/01/18 03:04:21;;;;;;;25.00;13.60;;;;;;;1.29;91.94;95823.31;105297;1257;98310;-68
2023/01/18 03:06:56;;;;;;;25.70;13.90;;;;;;;1.25;91.92;95823.55;105241;1256;111332;-68
2023/01/18 03:09:26;;;;;;;20.80;11.00;;;;;;;1.32;92.30;95822.89;105279;1257;98873;-68
2023/01/18 03:12:10;;;;;;;23.60;11.90;;;;;;;1.34;91.96;95826.30;105293;1256;108281;-68
2023/01/18 03:14:54;;;;;;;26.50;13.10;;;;;;;1.33;91.61;95821.33;105268;1256;97895;-68
2023/01/18 03:17:32;;;;;;;18.00;9.80;;;;;;;1.37;91.82;95814.99;105328;1254;98311;-68
2023/01/18 03:20:08;;;;;;;22.20;11.00;;;;;;;1.24;91.39;95810.02;105272;1266;111687;-68
2023/01/18 03:25:32;;;;;;;17.90;9.80;;;;;;;1.04;91.46;95801.91;105150;1256;109473;-66
2023/01/18 03:33:48;;;;;;;31.20;15.60;;;;;;;0.68;92.46;95742.44;105248;1256;112198;-66
2023/01/18 03:36:29;;;;;;;23.90;12.10;;;;;;;0.63;92.69;95725.91;105189;1257;99165;-66
2023/01/18 03:39:06;;;;;;;21.60;12.20;;;;;;;0.58;93.04;95696.27;105121;1257;108546;-66
2023/01/18 03:41:41;;;;;;;20.60;10.50;;;;;;;0.52;93.33;95670.14;105257;1257;99198;-67
2023/01/18 03:44:13;;;;;;;24.30;13.10;;;;;;;0.48;93.49;95669.30;105263;1257;99303;-66
2023/01/18 03:46:42;;;;;;;28.10;13.60;;;;;;;0.45;93.45;95669.20;105307;1266;112139;-66
2023/01/18 03:49:10;;;;;;;29.00;15.50;;;;;;;0.42;93.71;95661.92;105311;1254;97812;-67
2023/01/18 03:52:00;;;;;;;25.70;13.10;;;;;;;0.40;93.54;95657.06;105182;1258;108521;-67
2023/01/18 03:54:34;;;;;;;26.20;14.30;;;;;;;0.36;93.78;95679.75;105213;1254;97901;-67
2023/01/18 03:57:32;;;;;;;19.70;10.40;;;;;;;0.35;94.11;95720.73;105240;1257;98300;-67
2023/01/18 04:00:00;;;;;;;22.10;10.80;;;;;;;0.37;94.09;95730.64;105075;1269;112176;-67
2023/01/18 04:02:28;;;;;;;22.50;12.50;;;;;;;0.38;94.28;95732.86;105094;1254;97901;-67
2023/01/18 04:05:02;;;;;;;23.20;10.40;;;;;;;0.42;94.23;95736.25;105232;1264;97914;-68
2023/01/18 04:07:32;;;;;;;14.60;7.90;;;;;;;0.44;94.20;95739.20;105258;1256;98007;-68
2023/01/18 04:09:59;;;;;;;19.80;9.70;;;;;;;0.46;94.26;95743.73;105315;1259;98404;-67
2023/01/18 04:12:27;;;;;;;17.50;8.80;;;;;;;0.50;94.22;95742.83;105296;1266;98807;-65
2023/01/18 04:14:54;;;;;;;24.00;11.50;;;;;;;0.51;94.08;95734.23;105316;1257;99201;-65
2023/01/18 04:17:20;;;;;;;18.90;8.70;;;;;;;0.54;94.11;95725.52;105228;1266;97981;-65
2023/01/18 04:19:47;;;;;;;18.00;9.60;;;;;;;0.53;94.23;95714.61;105197;1266;97884;-65
2023/01/18 04:22:15;;;;;;;15.20;6.90;;;;;;;0.52;94.15;95704.50;105202;1266;97890;-65
2023/01/18 04:24:42;;;;;;;19.50;8.80;;;;;;;0.50;94.68;95688.48;105265;1256;98787;-66
2023/01/18 04:27:10;;;;;;;18.40;10.60;;;;;;;0.46;94.79;95687.17;105291;1267;97981;-67
2023/01/18 04:29:37;;;;;;;18.40;11.20;;;;;;;0.46;94.78;95690.16;105146;1257;99242;-66
2023/01/18 04:32:04;;;;;;;21.90;12.60;;;;;;;0.46;94.74;95691.64;105241;1267;97970;-65
2023/01/18 04:34:32;;;;;;;21.80;12.10;;;;;;;0.47;94.45;95699.38;105315;1257;98008;-66
2023/01/18 04:36:59;;;;;;;21.70;11.70;;;;;;;0.48;94.44;95713.58;105270;1256;98007;-66
2023/01/18 04:39:26;;;;;;;23.40;14.20;;;;;;;0.52;94.17;95725.80;105254;1257;98836;-66
2023/01/18 04:41:53;;;;;;;25.20;14.00;;;;;;;0.62;94.64;95727.17;105047;1257;285830;-66
2023/01/18 04:44:22;;;;;;;25.30;13.70;;;;;;;0.74;94.50;95728.66;105244;1257;97941;-67
2023/01/18 04:46:50;;;;;;;20.50;12.00;;;;;;;0.78;93.82;95731.89;105230;1268;97900;-67
2023/01/18 04:49:16;;;;;;;23.40;12.90;;;;;;;0.77;93.48;95732.94;105270;1267;99725;-67
2023/01/18 04:51:45;;;;;;;24.30;13.60;;;;;;;0.84;93.71;95738.30;105200;1261;97917;-68
2023/01/18 04:54:15;;;;;;;22.80;13.00;;;;;;;0.93;93.68;95736.91;105295;1275;97944;-67
2023/01/18 04:56:42;;;;;;;23.20;13.20;;;;;;;0.95;93.19;95737.05;105267;1256;99198;-67
2023/01/18 04:59:14;;;;;;;29.20;15.50;;;;;;;1.00;93.14;95741.42;105248;1256;97898;-68
2023/01/18 05:01:42;;;;;;;21.30;11.60;;;;;;;1.03;92.96;95736.27;105279;1256;112378;-68
2023/01/18 05:04:09;;;;;;;18.40;9.40;;;;;;;1.00;92.69;95722.36;105315;1256;99132;-68
2023/01/18 05:06:36;;;;;;;14.30;8.70;;;;;;;0.93;92.93;95721.93;105191;1272;97887;-68
2023/01/18 05:09:04;;;;;;;65.00;26.00;;;;;;;0.86;93.26;95711.77;105256;1257;99200;-68
2023/01/18 05:11:31;;;;;;;46.90;18.60;;;;;;;0.81;93.35;95706.20;105249;1257;99194;-68
2023/01/18 05:13:58;;;;;;;35.30;15.40;;;;;;;0.76;93.40;95711.56;105289;1257;99178;-67
2023/01/18 05:16:25;;;;;;;35.90;16.10;;;;;;;0.72;93.80;95714.30;105301;1266;97894;-68
2023/01/18 05:18:52;;;;;;;29.60;13.50;;;;;;;0.69;93.64;95721.98;105190;1257;98465;-68
2023/01/18 05:21:19;;;;;;;28.30;13.20;;;;;;;0.67;93.89;95720.88;105240;1259;97957;-67
2023/01/18 05:23:46;;;;;;;22.60;11.60;;;;;;;0.66;94.02;95720.95;105132;1256;97986;-68
2023/01/18 05:26:19;;;;;;;221.60;77.60;;;;;;;0.66;93.87;95726.39;105273;1256;99187;-71
2023/01/18 05:28:48;;;;;;;275.50;89.00;;;;;;;0.67;93.96;95723.36;105089;1258;108609;-71
2023/01/18 05:31:17;;;;;;;28.80;14.40;;;;;;;0.70;93.98;95728.86;105263;1257;98249;-68
2023/01/18 05:33:44;;;;;;;30.70;16.00;;;;;;;0.71;93.93;95734.48;105308;1267;98483;-66
2023/01/18 05:36:11;;;;;;;19.40;12.00;;;;;;;0.77;93.98;95743.56;105235;1257;97913;-67
2023/01/18 05:38:38;;;;;;;28.30;13.00;;;;;;;0.82;93.86;95745.53;105256;1257;98820;-66
2023/01/18 05:41:05;;;;;;;31.50;14.30;;;;;;;0.83;93.91;95749.71;105300;1257;99273;-68
2023/01/18 05:43:33;;;;;;;26.70;13.10;;;;;;;0.87;93.94;95743.43;105250;1268;97982;-66
2023/01/18 05:46:01;;;;;;;173.70;47.00;;;;;;;0.86;93.74;95740.52;105302;1255;97914;-68
2023/01/18 05:48:28;;;;;;;31.90;18.90;;;;;;;0.83;93.43;95739.64;105281;1256;97956;-68
2023/01/18 05:50:56;;;;;;;24.60;13.20;;;;;;;0.83;93.92;95741.35;105325;1267;98708;-68
2023/01/18 05:53:22;;;;;;;20.30;10.90;;;;;;;0.84;93.98;95739.77;105224;1266;97943;-68
2023/01/18 05:55:57;;;;;;;22.30;12.40;;;;;;;0.82;94.07;95729.73;105236;1258;97895;-68
2023/01/18 05:58:26;;;;;;;21.30;11.00;;;;;;;0.78;94.03;95722.47;105266;1267;98302;-68
2023/01/18 06:00:55;;;;;;;31.70;15.20;;;;;;;0.77;94.41;95721.13;105294;1258;112176;-68
2023/01/18 06:03:24;;;;;;;24.60;15.10;;;;;;;0.78;94.57;95723.33;105302;1258;100736;-68
2023/01/18 06:05:51;;;;;;;19.10;9.30;;;;;;;0.78;94.52;95722.63;105305;1257;108590;-68
2023/01/18 06:08:19;;;;;;;26.60;14.00;;;;;;;0.76;94.52;95723.11;105308;1254;97991;-68
2023/01/18 06:10:57;;;;;;;18.30;11.20;;;;;;;0.77;94.49;95728.95;105253;1267;99135;-68
2023/01/18 06:13:27;;;;;;;17.90;10.80;;;;;;;0.81;94.53;95741.70;105032;1267;112399;-68
2023/01/18 06:15:55;;;;;;;19.90;11.70;;;;;;;0.82;94.35;95744.59;105316;1257;99142;-68
2023/01/18 06:18:25;;;;;;;17.50;9.30;;;;;;;0.85;94.31;95745.65;105287;1257;106885;-68
2023/01/18 06:20:53;;;;;;;25.10;12.80;;;;;;;0.88;94.25;95753.16;105249;1275;98716;-68
2023/01/18 06:23:20;;;;;;;20.80;11.60;;;;;;;0.94;94.17;95762.10;105321;1267;99527;-68
2023/01/18 06:25:47;;;;;;;17.00;9.00;;;;;;;1.00;94.26;95769.38;105251;1266;97907;-68
2023/01/18 06:28:15;;;;;;;37.20;15.80;;;;;;;0.99;93.79;95768.19;105357;1256;98069;-68
2023/01/18 06:30:42;;;;;;;31.60;15.30;;;;;;;1.04;93.92;95767.20;105295;1266;98900;-68
2023/01/18 06:33:09;;;;;;;56.40;20.50;;;;;;;1.06;93.74;95764.38;105309;1268;98266;-68
2023/01/18 06:35:37;;;;;;;21.80;10.80;;;;;;;1.05;93.72;95760.25;105291;1266;99198;-68
2023/01/18 06:38:05;;;;;;;20.80;11.00;;;;;;;1.04;93.79;95757.71;105342;1257;98385;-68
2023/01/18 06:40:32;;;;;;;12.40;8.00;;;;;;;0.99;93.92;95757.00;105305;1261;97890;-68
2023/01/18 06:42:59;;;;;;;23.20;14.50;;;;;;;0.93;94.05;95755.81;105235;1266;98312;-68
2023/01/18 06:45:28;;;;;;;24.70;12.20;;;;;;;0.92;94.06;95757.73;105289;1266;97989;-67
2023/01/18 06:47:55;;;;;;;18.20;9.60;;;;;;;0.93;93.97;95759.21;105121;1266;98406;-68
2023/01/18 06:50:22;;;;;;;23.90;14.00;;;;;;;0.92;93.97;95752.09;105179;1257;97938;-69
2023/01/18 06:52:50;;;;;;;32.50;16.50;;;;;;;0.92;94.02;95757.25;105140;1266;98897;-73
2023/01/18 06:55:18;;;;;;;22.10;11.70;;;;;;;0.98;94.26;95759.74;105248;1267;97907;-67
2023/01/18 06:57:46;;;;;;;27.30;13.90;;;;;;;1.01;93.90;95757.69;105031;1266;97976;-69
2023/01/18 07:00:15;;;;;;;37.70;17.40;;;;;;;1.04;93.89;95760.06;105263;1258;98463;-68
2023/01/18 07:02:42;;;;;;;28.20;15.20;;;;;;;1.08;93.96;95764.06;105205;1274;111240;-68
2023/01/18 07:05:10;;;;;;;26.60;14.20;;;;;;;1.08;93.86;95763.97;105049;1267;98814;-68
2023/01/18 07:07:37;;;;;;;31.40;17.80;;;;;;;1.07;93.71;95768.16;105303;1267;97976;-68
2023/01/18 07:10:04;;;;;;;31.20;17.30;;;;;;;1.05;94.07;95773.10;105253;1256;99241;-68
2023/01/18 07:12:31;;;;;;;30.10;15.80;;;;;;;1.07;93.94;95774.58;105327;1257;98036;-68
2023/01/18 07:14:58;;;;;;;60.80;25.10;;;;;;;1.14;94.36;95780.33;105246;1266;99207;-68
2023/01/18 07:17:35;;;;;;;49.70;20.80;;;;;;;1.28;94.86;95786.98;105201;1257;98293;-68
2023/01/18 07:20:03;;;;;;;36.50;16.20;;;;;;;1.42;94.98;95795.23;105158;1275;98845;-68
2023/01/18 07:22:30;;;;;;;34.00;13.90;;;;;;;1.54;95.11;95795.09;105266;1269;99129;-68
2023/01/18 07:24:57;;;;;;;39.00;14.50;;;;;;;1.59;93.87;95795.98;105254;1266;99248;-68
2023/01/18 07:27:25;;;;;;;27.40;13.80;;;;;;;1.53;93.18;95803.21;105236;1257;99174;-68
2023/01/18 07:29:54;;;;;;;26.60;11.50;;;;;;;1.49;93.10;95800.66;105086;1266;97889;-68
2023/01/18 07:32:21;;;;;;;23.10;10.10;;;;;;;1.48;93.25;95799.45;105163;1257;108589;-68
2023/01/18 07:34:48;;;;;;;22.20;10.60;;;;;;;1.43;93.03;95792.27;105189;1263;97953;-68
2023/01/18 07:37:15;;;;;;;26.00;12.00;;;;;;;1.40;93.34;95788.29;105292;1266;97885;-68
2023/01/18 07:39:42;;;;;;;21.80;10.80;;;;;;;1.36;93.10;95792.23;105296;1268;98426;-68
2023/01/18 07:42:10;;;;;;;24.50;11.60;;;;;;;1.33;93.41;95786.10;105036;1265;99356;-68
2023/01/18 07:44:37;;;;;;;23.30;11.80;;;;;;;1.31;93.55;95783.08;105207;1266;98499;-68
2023/01/18 07:47:06;;;;;;;33.10;16.50;;;;;;;1.30;93.41;95783.98;105197;1258;97980;-68
2023/01/18 07:49:33;;;;;;;41.80;18.20;;;;;;;1.32;93.53;95791.75;105314;1266;99213;-68
2023/01/18 07:52:00;;;;;;;64.60;25.60;;;;;;;1.40;93.78;95797.39;105266;1268;97961;-68
2023/01/18 07:54:28;;;;;;;34.30;15.00;;;;;;;1.45;93.62;95806.73;105290;1266;97981;-68
2023/01/18 07:56:54;;;;;;;37.60;16.40;;;;;;;1.49;93.56;95812.93;105197;1258;97940;-68
2023/01/18 07:59:22;;;;;;;196.00;69.10;;;;;;;1.53;93.38;95816.42;105021;1274;99300;-68
2023/01/18 08:01:49;;;;;;;44.90;18.70;;;;;;;1.55;93.17;95821.65;105283;1255;97944;-68
2023/01/18 08:04:16;;;;;;;22.20;11.20;;;;;;;1.57;93.13;95822.12;105080;1268;97989;-68
2023/01/18 08:06:43;;;;;;;30.50;13.70;;;;;;;1.62;93.29;95817.20;105200;1264;97890;-68
2023/01/18 08:09:10;;;;;;;28.10;12.00;;;;;;;1.68;93.07;95807.16;105082;1266;97982;-67
2023/01/18 08:11:37;;;;;;;33.50;16.00;;;;;;;1.65;92.68;95794.66;105328;1267;98144;-70
2023/01/18 08:14:04;;;;;;;52.00;20.90;;;;;;;1.71;92.88;95783.46;105216;1266;98094;-69
2023/01/18 08:16:31;;;;;;;38.80;15.70;;;;;;;1.73;92.86;95778.08;105377;1266;97883;-69
2023/01/18 08:18:58;;;;;;;64.00;26.30;;;;;;;1.78;92.91;95785.03;105370;1257;97983;-66
2023/01/18 08:21:25;;;;;;;35.80;15.40;;;;;;;1.82;92.94;95791.45;105270;1255;99204;-66
2023/01/18 08:23:52;;;;;;;35.60;17.10;;;;;;;1.84;92.79;95787.99;105202;1258;98034;-67
2023/01/18 08:26:19;;;;;;;36.20;17.60;;;;;;;1.83;92.49;95797.90;104970;1266;97946;-66
2023/01/18 08:28:46;;;;;;;97.40;42.60;;;;;;;1.80;92.31;95817.80;105077;1257;99201;-66
2023/01/18 08:31:18;;;;;;;48.00;20.70;;;;;;;1.80;92.79;95832.39;105102;1257;98030;-66
2023/01/18 08:33:47;;;;;;;55.40;24.60;;;;;;;1.81;92.81;95839.17;105339;1256;97895;-72
2023/01/18 08:36:17;;;;;;;78.10;35.00;;;;;;;1.80;92.73;95830.16;105320;1257;112194;-66
2023/01/18 08:38:50;;;;;;;41.40;18.80;;;;;;;1.78;92.21;95826.39;105267;1256;100037;-66
2023/01/18 08:41:18;;;;;;;45.70;18.20;;;;;;;1.73;92.51;95818.26;105369;1266;108468;-67
2023/01/18 08:43:49;;;;;;;51.40;21.10;;;;;;;1.76;92.43;95815.35;105267;1263;97846;-67
2023/01/18 08:46:17;;;;;;;62.80;25.50;;;;;;;1.74;92.34;95811.97;105198;1266;98152;-67
2023/01/18 08:48:48;;;;;;;47.30;19.90;;;;;;;1.74;92.41;95815.91;105280;1254;112405;-67
2023/01/18 08:51:17;;;;;;;51.30;23.40;;;;;;;1.76;92.44;95827.94;105288;1268;98683;-67
2023/01/18 08:53:45;;;;;;;56.80;24.40;;;;;;;1.84;92.78;95836.18;105302;1257;107650;-66
2023/01/18 08:56:12;;;;;;;55.30;21.30;;;;;;;1.89;92.69;95844.89;105296;1275;98023;-66
2023/01/18 08:58:39;;;;;;;43.00;20.20;;;;;;;1.95;92.78;95855.12;105244;1266;97926;-67
2023/01/18 09:01:08;;;;;;;53.00;25.70;;;;;;;1.97;92.39;95860.31;105294;1255;98371;-67
2023/01/18 09:03:36;;;;;;;45.80;20.00;;;;;;;1.98;92.07;95864.60;105337;1266;98530;-68
2023/01/18 09:06:08;;;;;;;49.20;23.80;;;;;;;1.96;91.86;95862.19;105273;1257;108603;-66
2023/01/18 09:08:38;;;;;;;49.20;23.40;;;;;;;1.89;91.55;95860.30;105269;1266;97993;-66
2023/01/18 09:11:09;;;;;;;53.10;23.00;;;;;;;1.81;91.65;95866.00;105307;1257;98010;-68
2023/01/18 09:13:40;;;;;;;70.50;26.00;;;;;;;1.73;91.83;95870.48;105245;1258;111718;-66
2023/01/18 09:16:29;;;;;;;66.70;25.60;;;;;;;1.69;91.82;95881.36;105152;1254;100293;-66
2023/01/18 09:18:58;;;;;;;65.50;27.30;;;;;;;1.68;91.59;95885.08;105309;1258;107731;-66
2023/01/18 09:21:31;;;;;;;74.30;28.20;;;;;;;1.62;91.36;95882.69;105018;1270;97961;-66
2023/01/18 09:24:06;;;;;;;62.00;25.40;;;;;;;1.59;91.28;95879.02;105256;1258;98441;-66
2023/01/18 09:26:33;;;;;;;70.50;28.50;;;;;;;1.60;91.59;95875.83;105237;1268;112116;-66
2023/01/18 09:29:01;;;;;;;68.40;28.50;;;;;;;1.62;91.59;95882.08;105356;1256;97893;-65
2023/01/18 09:31:29;;;;;;;66.30;28.30;;;;;;;1.67;91.54;95884.03;105262;1257;99206;-65
2023/01/18 09:33:57;;;;;;;67.20;30.40;;;;;;;1.69;91.25;95883.83;105212;1266;98000;-69
2023/01/18 09:36:43;;;;;;;71.80;31.10;;;;;;;1.70;91.22;95881.23;105202;1258;98386;-67
2023/01/18 09:39:10;;;;;;;74.00;31.20;;;;;;;1.70;91.12;95888.63;105283;1257;97924;-66
2023/01/18 09:42:00;;;;;;;66.90;29.30;;;;;;;1.71;91.43;95887.77;105302;1266;98231;-66
2023/01/18 09:44:33;;;;;;;62.70;28.30;;;;;;;1.75;91.60;95887.40;105251;1257;107512;-67
2023/01/18 09:47:03;;;;;;;55.90;25.90;;;;;;;1.77;91.66;95899.50;105210;1266;97998;-66
2023/01/18 09:49:51;;;;;;;81.70;41.50;;;;;;;1.77;91.79;95904.83;105244;1257;97825;-66
2023/01/18 09:52:27;;;;;;;60.80;26.10;;;;;;;1.75;91.27;95917.92;105241;1257;112329;-66
2023/01/18 09:55:18;;;;;;;52.90;23.50;;;;;;;1.71;91.53;95919.73;105250;1261;98466;-66
2023/01/18 09:58:24;;;;;;;52.30;22.70;;;;;;;1.69;91.46;95934.19;105204;1267;108723;-66
2023/01/18 10:00:56;;;;;;;58.50;24.80;;;;;;;1.67;91.24;95942.51;105204;1268;98029;-66
2023/01/18 10:03:32;;;;;;;75.60;38.70;;;;;;;1.68;91.71;95951.34;105289;1257;99108;-68
2023/01/18 10:06:07;;;;;;;69.40;29.20;;;;;;;1.70;91.55;95955.77;105273;1263;112242;-68
2023/01/18 10:08:52;;;;;;;123.80;53.00;;;;;;;1.71;91.33;95960.44;105295;1265;98174;-68
2023/01/18 10:11:26;;;;;;;148.70;59.20;;;;;;;1.72;91.33;95959.83;105237;1256;108665;-68
2023/01/18 10:14:04;;;;;;;216.20;106.10;;;;;;;1.73;91.46;95960.91;105274;1264;98496;-67
2023/01/18 10:16:33;;;;;;;152.40;72.30;;;;;;;1.76;91.54;95969.52;104800;1269;98582;-66
2023/01/18 10:19:01;;;;;;;105.00;48.20;;;;;;;1.80;91.70;95968.75;104912;1263;110735;-65
2023/01/18 10:21:44;;;;;;;109.80;53.60;;;;;;;1.81;91.47;95976.73;104884;1271;98699;-65
2023/01/18 10:24:26;;;;;;;187.90;96.40;;;;;;;1.83;91.53;95976.67;104916;1263;107896;-65
2023/01/18 10:27:09;;;;;;;67.40;30.80;;;;;;;1.85;91.69;95984.00;104870;1270;99409;-65
2023/01/18 10:30:15;;;;;;;76.80;34.70;;;;;;;1.87;91.75;95987.54;104888;1261;98068;-65
2023/01/18 10:32:49;;;;;;;68.70;31.20;;;;;;;1.83;91.49;95989.29;105004;1272;110642;-65
2023/01/18 10:35:22;;;;;;;135.10;54.40;;;;;;;1.81;91.73;95997.26;104901;1261;98217;-65
2023/01/18 10:37:51;;;;;;;76.20;34.90;;;;;;;1.81;91.82;95999.48;104753;1270;108685;-65
2023/01/18 10:40:18;;;;;;;58.70;26.20;;;;;;;1.79;91.87;96007.83;104753;1269;98017;-65
2023/01/18 10:42:48;;;;;;;63.30;28.10;;;;;;;1.74;91.65;96008.21;105093;1254;97957;-65
2023/01/18 10:45:36;;;;;;;72.20;31.70;;;;;;;1.69;91.79;96013.02;104968;1266;111165;-64
2023/01/18 10:48:31;;;;;;;89.20;39.60;;;;;;;1.68;92.08;96015.52;104949;1256;100274;-64
2023/01/18 10:51:01;;;;;;;76.10;32.50;;;;;;;1.72;92.50;96018.31;105122;1267;108577;-65
2023/01/18 10:53:30;;;;;;;58.70;26.40;;;;;;;1.73;92.67;96013.48;105075;1258;98910;-66
2023/01/18 10:56:18;;;;;;;51.80;24.70;;;;;;;1.74;92.34;96017.73;105058;1257;98609;-65
2023/01/18 10:58:47;;;;;;;59.00;31.20;;;;;;;1.76;92.31;96018.44;105342;1256;110870;-68
2023/01/18 11:01:26;;;;;;;190.70;54.40;;;;;;;1.81;92.58;96021.95;105281;1254;100216;-65
2023/01/18 11:04:07;;;;;;;84.90;33.20;;;;;;;1.87;92.64;96024.52;105151;1258;108626;-63
2023/01/18 11:06:44;;;;;;;56.80;25.80;;;;;;;1.91;92.57;96021.88;105207;1254;99150;-64
2023/01/18 11:09:50;;;;;;;158.90;72.30;;;;;;;1.96;92.18;96026.33;105214;1254;99086;-64
2023/01/18 11:12:37;;;;;;;596.30;195.50;;;;;;;2.00;92.28;96028.19;104588;1273;112165;-64
2023/01/18 11:15:13;;;;;;;179.90;51.40;;;;;;;2.06;92.43;96030.10;104652;1260;98757;-64
2023/01/18 11:17:55;;;;;;;86.70;31.60;;;;;;;2.07;92.13;96035.42;104611;1264;108858;-64
2023/01/18 11:20:28;;;;;;;92.10;32.00;;;;;;;2.08;92.26;96036.30;104579;1264;97958;-64
2023/01/18 11:22:59;;;;;;;74.40;28.70;;;;;;;2.11;92.18;96040.70;104573;1264;99104;-64
2023/01/18 11:25:54;;;;;;;85.30;29.80;;;;;;;2.14;92.10;96042.89;104603;1282;113467;-65
2023/01/18 11:28:28;;;;;;;68.10;25.40;;;;;;;2.15;92.25;96042.80;104588;1269;99471;-64
2023/01/18 11:31:21;;;;;;;54.30;22.70;;;;;;;2.16;91.96;96048.34;104586;1266;108549;-65
2023/01/18 11:33:54;;;;;;;81.60;30.30;;;;;;;2.15;91.92;96053.94;104564;1267;99768;-64
2023/01/18 11:36:37;;;;;;;63.70;25.80;;;;;;;2.12;91.73;96057.62;104644;1264;98091;-65
2023/01/18 11:39:20;;;;;;;64.60;23.20;;;;;;;2.04;91.63;96056.52;104547;1269;112267;-65
2023/01/18 11:41:48;;;;;;;79.30;26.80;;;;;;;1.99;92.28;96063.55;104462;1264;99440;-65
2023/01/18 11:44:14;;;;;;;81.20;25.40;;;;;;;1.93;92.27;96064.71;104434;1264;108572;-65
2023/01/18 11:46:46;;;;;;;66.10;25.40;;;;;;;1.89;91.87;96066.80;104555;1273;97880;-64
2023/01/18 11:49:36;;;;;;;86.80;29.80;;;;;;;1.88;92.12;96074.31;104924;1257;98416;-65
2023/01/18 11:52:41;;;;;;;67.20;24.80;;;;;;;1.88;92.04;96082.27;105056;1260;110692;-65
2023/01/18 11:55:34;;;;;;;104.90;32.10;;;;;;;1.89;92.33;96089.32;104885;1263;98156;-65
2023/01/18 11:58:04;;;;;;;63.50;23.60;;;;;;;1.92;92.52;96096.36;104923;1268;106970;-65
2023/01/18 12:00:48;;;;;;;65.10;26.10;;;;;;;1.93;92.65;96097.66;105062;1269;97916;-65
2023/01/18 12:03:30;;;;;;;51.20;20.70;;;;;;;1.93;92.90;96103.23;105072;1258;99560;-65
2023/01/18 12:06:09;;;;;;;70.20;26.80;;;;;;;1.95;92.95;96105.39;104940;1254;111939;-65
2023/01/18 12:08:57;;;;;;;67.60;27.60;;;;;;;1.98;92.77;96107.54;104855;1254;99392;-65